createdAt,value
2019-02-16T00:02:06.865Z,0.99
2019-02-16T00:07:06.557Z,0.88
2019-02-16T00:12:06.504Z,0.34
2019-02-16T00:17:06.822Z,-0.19
2019-02-16T00:22:06.574Z,-0.42
2019-02-16T00:27:07.337Z,-0.68
2019-02-16T00:31:06.563Z,-0.98
2019-02-16T00:36:06.340Z,0.13
2019-02-16T00:41:06.331Z,0.71
2019-02-16T00:46:06.893Z,0.92
2019-02-16T00:51:13.125Z,1.11
2019-02-16T00:56:06.585Z,1.2
2019-02-16T01:01:06.884Z,1.29
2019-02-16T01:06:06.536Z,1.36
2019-02-16T01:10:06.535Z,1.35
2019-02-16T01:15:07.675Z,1.38
2019-02-16T01:20:06.528Z,1.31
2019-02-16T01:25:06.239Z,1.25
2019-02-16T01:30:08.106Z,1.26
2019-02-16T01:35:06.471Z,1.08
2019-02-16T01:40:06.496Z,0.92
2019-02-16T01:44:06.830Z,0.93
2019-02-16T01:49:07.576Z,0.95
2019-02-16T01:54:07.291Z,1.08
2019-02-16T01:59:06.963Z,1.13
2019-02-16T02:04:10.113Z,1.08
2019-02-16T02:09:07.700Z,1.02
2019-02-16T02:14:06.579Z,1.02
2019-02-16T02:19:06.432Z,0.97
2019-02-16T02:23:06.991Z,0.81
2019-02-16T02:28:06.737Z,0.87
2019-02-16T02:33:07.509Z,0.86
2019-02-16T02:38:07.177Z,0.91
2019-02-16T02:43:07.544Z,0.83
2019-02-16T02:48:07.561Z,0.68
2019-02-16T02:53:07.286Z,0.64
2019-02-16T02:57:06.770Z,0.07
2019-02-16T03:02:07.785Z,0.43
2019-02-16T03:07:07.647Z,0.45
2019-02-16T03:12:06.889Z,0.66
2019-02-16T03:17:06.969Z,0.49
2019-02-16T03:22:07.704Z,0.59
2019-02-16T03:27:07.631Z,0.6
2019-02-16T03:32:06.394Z,0.68
2019-02-16T03:36:07.118Z,0.83
2019-02-16T03:41:06.999Z,0.68
2019-02-16T03:46:07.037Z,0.67
2019-02-16T03:51:06.602Z,0.31
2019-02-16T03:56:06.744Z,0.71
2019-02-16T04:01:07.038Z,0.58
2019-02-16T04:06:06.986Z,0.67
2019-02-16T04:10:06.760Z,0.2
2019-02-16T04:15:07.897Z,-0.31
2019-02-16T04:20:06.419Z,-0.96
2019-02-16T04:25:07.577Z,-1.46
2019-02-16T04:30:08.599Z,-1.44
2019-02-16T04:35:06.844Z,-0.75
2019-02-16T04:40:06.575Z,-0.76
2019-02-16T04:44:05.995Z,-0.96
2019-02-16T04:49:06.416Z,-1.26
2019-02-16T04:54:06.273Z,-1.34
2019-02-16T04:59:06.115Z,-1.47
2019-02-16T05:04:07.242Z,-1.11
2019-02-16T05:09:07.082Z,-0.84
2019-02-16T05:14:07.325Z,-0.66
2019-02-16T05:19:06.692Z,-0.44
2019-02-16T05:23:07.125Z,-0.28
2019-02-16T05:28:06.376Z,-0.1
2019-02-16T05:33:06.853Z,-0.26
2019-02-16T05:38:06.608Z,-0.16
2019-02-16T05:43:06.050Z,-0.71
2019-02-16T05:48:06.542Z,-1.45
2019-02-16T05:53:06.345Z,-0.6
2019-02-16T05:58:06.054Z,0.07
2019-02-16T06:02:06.455Z,0.28
2019-02-16T06:07:06.114Z,0.3
2019-02-16T06:12:06.353Z,0.42
2019-02-16T06:17:06.878Z,0.43
2019-02-16T06:22:06.598Z,0.45
2019-02-16T06:27:06.479Z,0.5
2019-02-16T06:32:06.029Z,0.47
2019-02-16T06:36:07.530Z,0.69
2019-02-16T06:41:07.949Z,0.63
2019-02-16T06:46:07.314Z,0.34
2019-02-16T06:51:07.047Z,0.43
2019-02-16T06:56:06.778Z,0.53
2019-02-16T07:01:06.237Z,0.65
2019-02-16T07:06:06.997Z,0.64
2019-02-16T07:11:06.223Z,0.77
2019-02-16T07:15:08.141Z,1.97
2019-02-16T07:20:08.667Z,2.88
2019-02-16T07:25:07.351Z,3.84
2019-02-16T07:30:08.264Z,4.3
2019-02-16T07:35:06.875Z,4.07
2019-02-16T07:40:07.019Z,4.41
2019-02-16T07:45:07.404Z,4.78
2019-02-16T07:49:07.332Z,5.3
2019-02-16T07:54:07.987Z,5.9
2019-02-16T07:59:07.505Z,6.39
2019-02-16T08:04:06.721Z,5.92
2019-02-16T08:09:06.903Z,5.94
2019-02-16T08:14:06.711Z,6.24
2019-02-16T08:19:06.394Z,6.55
2019-02-16T08:24:06.257Z,7.07
2019-02-16T08:28:06.955Z,7.11
2019-02-16T08:33:07.000Z,7.64
2019-02-16T08:38:06.751Z,7.88
2019-02-16T08:43:07.050Z,8.55
2019-02-16T08:48:06.951Z,9.24
2019-02-16T08:53:06.787Z,9.31
2019-02-16T08:58:07.511Z,9.26
2019-02-16T09:02:07.616Z,9.41
2019-02-16T09:07:07.623Z,10.1
2019-02-16T09:08:06.096Z,10.1
2019-02-16T09:12:06.671Z,10.59
2019-02-16T09:17:06.172Z,11.28
2019-02-16T09:22:06.898Z,11.53
2019-02-16T09:27:06.655Z,11.52
2019-02-16T09:32:06.069Z,11.48
2019-02-16T09:37:06.848Z,11.88
2019-02-16T09:41:06.145Z,12.16
2019-02-16T09:46:07.120Z,12.88
2019-02-16T09:51:06.967Z,12.35
2019-02-16T09:56:06.735Z,13.03
2019-02-16T10:01:07.301Z,13.47
2019-02-16T10:06:07.059Z,13.93
2019-02-16T10:11:07.259Z,13.68
2019-02-16T10:16:06.742Z,14.17
2019-02-16T10:20:07.870Z,13.83
2019-02-16T10:25:06.579Z,14.01
2019-02-16T10:30:07.538Z,14.69
2019-02-16T10:35:06.103Z,14.51
2019-02-16T10:40:06.362Z,14.52
2019-02-16T10:45:07.199Z,15.15
2019-02-16T10:50:06.800Z,14.97
2019-02-16T10:55:06.564Z,14.97
2019-02-16T10:59:06.469Z,14.94
2019-02-16T11:04:06.582Z,15.19
2019-02-16T11:09:07.190Z,15.65
2019-02-16T11:14:06.959Z,16.1
2019-02-16T11:19:07.536Z,16.05
2019-02-16T11:24:07.176Z,15.83
2019-02-16T11:29:06.328Z,16.47
2019-02-16T11:34:06.839Z,16.11
2019-02-16T11:38:06.688Z,16.49
2019-02-16T11:43:06.788Z,17.16
2019-02-16T11:48:06.574Z,16.78
2019-02-16T11:53:06.312Z,16.61
2019-02-16T11:58:06.047Z,16.8
2019-02-16T12:03:06.713Z,17.33
2019-02-16T12:08:07.497Z,17.84
2019-02-16T12:13:06.794Z,17.56
2019-02-16T12:17:06.883Z,17.34
2019-02-16T12:22:06.610Z,17.06
2019-02-16T12:27:06.308Z,16.79
2019-02-16T12:32:06.928Z,17.26
2019-02-16T12:37:06.632Z,17.59
2019-02-16T12:42:06.807Z,17.21
2019-02-16T12:47:06.060Z,17.3
2019-02-16T12:52:06.801Z,17.47
2019-02-16T12:56:06.680Z,17.58
2019-02-16T13:01:06.650Z,17.69
2019-02-16T13:06:06.421Z,18.32
2019-02-16T13:11:06.854Z,18.08
2019-02-16T13:16:06.602Z,18.03
2019-02-16T13:21:06.408Z,18.47
2019-02-16T13:26:06.144Z,19.24
2019-02-16T13:30:06.795Z,18.94
2019-02-16T13:35:06.137Z,18.56
2019-02-16T13:40:06.443Z,18.55
2019-02-16T13:45:07.537Z,18.91
2019-02-16T13:50:07.632Z,19.22
2019-02-16T13:55:07.347Z,18.83
2019-02-16T14:05:06.944Z,19.36
2019-02-16T14:09:07.072Z,19.18
2019-02-16T14:14:06.804Z,19.17
2019-02-16T14:19:06.478Z,19.47
2019-02-16T14:24:06.329Z,19.27
2019-02-16T14:29:06.117Z,20.01
2019-02-16T14:34:06.838Z,19.27
2019-02-16T14:39:07.655Z,18.42
2019-02-16T14:43:06.791Z,18.26
2019-02-16T14:48:06.758Z,18.51
2019-02-16T14:53:06.427Z,17.18
2019-02-16T14:58:06.169Z,17.2
2019-02-16T15:03:07.232Z,16.89
2019-02-16T15:08:06.887Z,16.61
2019-02-16T15:13:07.280Z,16.41
2019-02-16T15:18:06.791Z,17.59
2019-02-16T15:22:06.927Z,16.86
2019-02-16T15:27:06.542Z,17.15
2019-02-16T15:32:06.041Z,17.55
2019-02-16T15:37:06.802Z,16.82
2019-02-16T15:42:06.135Z,16.25
2019-02-16T15:47:06.223Z,15.11
2019-02-16T15:51:06.100Z,13.94
2019-02-16T15:56:10.348Z,13.29
2019-02-16T16:01:06.559Z,13.05
2019-02-16T16:06:06.514Z,12.65
2019-02-16T16:11:06.612Z,12.22
2019-02-16T16:16:07.004Z,12.05
2019-02-16T16:21:06.823Z,11.63
2019-02-16T16:25:07.225Z,11.07
2019-02-16T16:30:07.613Z,10.7
2019-02-16T16:35:07.274Z,10.5
2019-02-16T16:40:06.647Z,10.22
2019-02-16T16:45:08.043Z,9.92
2019-02-16T16:50:07.542Z,9.66
2019-02-16T16:54:06.914Z,9.54
2019-02-16T16:59:06.971Z,9.48
2019-02-16T17:04:06.772Z,9.22
2019-02-16T17:09:07.788Z,8.27
2019-02-16T17:14:06.536Z,7.34
2019-02-16T17:19:06.026Z,6.41
2019-02-16T17:24:06.896Z,5.97
2019-02-16T17:28:07.417Z,6.72
2019-02-16T17:33:07.363Z,6.88
2019-02-16T17:38:06.984Z,6.23
2019-02-16T17:43:07.337Z,5.6
2019-02-16T17:48:06.812Z,5.08
2019-02-16T17:53:07.663Z,4.63
2019-02-16T17:58:06.785Z,4.07
2019-02-16T18:02:06.365Z,3.65
2019-02-16T18:07:06.211Z,3.77
2019-02-16T18:12:06.344Z,3.75
2019-02-16T18:17:06.165Z,3.27
2019-02-16T18:22:07.365Z,2.91
2019-02-16T18:27:06.082Z,3.29
2019-02-16T18:32:06.373Z,3.21
2019-02-16T18:36:06.963Z,3.26
2019-02-16T18:41:07.286Z,3.19
2019-02-16T18:46:07.052Z,3.11
2019-02-16T18:51:06.985Z,2.95
2019-02-16T18:56:07.007Z,2.76
2019-02-16T19:01:06.602Z,2.64
2019-02-16T19:06:06.423Z,3
2019-02-16T19:10:07.345Z,2.73
2019-02-16T19:15:08.994Z,2.52
2019-02-16T19:20:07.661Z,2.51
2019-02-16T19:25:07.519Z,2.17
2019-02-16T19:30:08.681Z,2.07
2019-02-16T19:35:06.827Z,2.11
2019-02-16T19:40:07.103Z,2.1
2019-02-16T19:44:06.310Z,2.21
2019-02-16T19:49:06.811Z,2.02
2019-02-16T19:54:06.494Z,1.65
2019-02-16T19:59:06.234Z,1.31
2019-02-16T20:04:07.099Z,1.11
2019-02-16T20:09:07.320Z,0.93
2019-02-16T20:14:07.108Z,0.81
2019-02-16T20:18:06.996Z,0.87
2019-02-16T20:23:07.400Z,1.03
2019-02-16T20:28:07.084Z,1.19
2019-02-16T20:33:06.884Z,1.01
2019-02-16T20:38:06.750Z,0.74
2019-02-16T20:43:07.228Z,0.44
2019-02-16T20:48:07.378Z,0.22
2019-02-16T20:52:06.633Z,0.14
2019-02-16T20:57:06.804Z,0.68
2019-02-16T21:02:07.231Z,0.55
2019-02-16T21:07:07.274Z,0.59
2019-02-16T21:12:07.485Z,0.52
2019-02-16T21:17:07.104Z,0.65
2019-02-16T21:22:09.646Z,0.49
2019-02-16T21:26:06.992Z,0.31
2019-02-16T21:31:06.845Z,0.15
2019-02-16T21:36:06.594Z,-0.05
2019-02-16T21:41:06.762Z,0.39
2019-02-16T21:46:06.558Z,0.36
2019-02-16T21:51:06.404Z,0.52
2019-02-16T21:56:06.256Z,0.22
2019-02-16T22:01:07.054Z,0.3
2019-02-16T22:05:06.193Z,0.8
2019-02-16T22:10:06.341Z,0.91
2019-02-16T22:15:07.446Z,0.69
2019-02-16T22:20:06.584Z,0.52
2019-02-16T22:25:06.848Z,0.21
2019-02-16T22:30:07.944Z,-0.25
2019-02-16T22:35:06.865Z,-0.74
2019-02-16T22:39:07.144Z,-1.02
2019-02-16T22:44:06.824Z,-1.08
2019-02-16T22:49:06.261Z,-1.17
2019-02-16T22:54:07.138Z,-1.26
2019-02-16T22:59:06.890Z,-1.39
2019-02-16T23:04:06.503Z,-1.56
2019-02-16T23:09:06.630Z,-1.53
2019-02-16T23:13:06.634Z,-1.52
2019-02-16T23:18:06.217Z,-1.72
2019-02-16T23:23:06.983Z,-1.72
2019-02-16T23:28:06.679Z,-1.83
2019-02-16T23:33:07.041Z,-1.93
2019-02-16T23:38:06.765Z,-1.98
2019-02-16T23:43:07.003Z,-1.85
2019-02-16T23:47:06.479Z,-1.68
2019-02-16T23:52:06.344Z,-1.74
2019-02-16T23:57:06.058Z,-1.75
